Pollock, Louisiana
Current Conditions -  °F | °C
As of 2:53 AM on Thursday 27 Nov 2014 (Local Time) from KESF Reporting Station
Clear Clear  
Wind Chill: 49°   Ceiling: Unl
Heat Index: 49°   Visibility: 10mi
Dew Point: 34°   Wind: 0mph
Humidity: 56%   Direction: NA
Pressure: 30.35"   Gusts: NA
Location:  31.53°N, 92.41°W
Report Text: KESF 270853Z AUTO 00000KT 10SM CLR 09/01 A3035 RMK AO2 SLP275 T00940011 53014
Loading
Personal Weather Stations






























Interactive Weather Map New forecast layout! Learn more

10-Day Weather Forecast

Advertisements
Track Severe Weather on mobile